Terminal Aerodrome Forecast
Issued by NWS Paducah, KY

Home | Current Version | Previous Version | Text Only | Print | Product List | Glossary On
Versions: 1 2 3 4 5 6 7 8 9 10 11 12 13 14 15 16 17
000
FTUS43 KPAH 270500
TAFEVV
TAF
KEVV 270533Z 2706/2806 19007KT P6SM SCT040 OVC070
     FM271000 17006KT 6SM -SHRA BR SCT025 OVC040
      TEMPO 2712/2714 4SM SHRA BR SCT012 OVC025
     FM271400 18006KT 4SM SHRA BR OVC012
     FM271800 21007KT 3SM RA BR OVC007
     FM280200 32007KT 6SM BR OVC009=

USA.gov is the U.S. government's official web portal to all federal, state and local government web resources and services.